Flight Track Log - Related Links

Times and Time Zones

All times are in EDT time to prevent confusion due to time zone crossing. See the N770NC flight status page for this flight to view local times or setup timezone preferences in your user account.

Time Position Orientation Groundspeed Altitude Reporting Facility
EDT Latitude Longitude Course Direction KTS MPH feet Rate Location/Type
Mon 02:22:16 PM 33.6500 -84.4667 347° North 174 200 2,700  Level Atlanta TRACON
Mon 02:23:16 PM 33.6667 -84.5333 287° West 256 295 4,500 2,000 Climbing Atlanta TRACON
Mon 02:24:16 PM 33.7333 -84.5667 337° Northwest 278 320 6,700 1,988 Climbing Atlanta TRACON
Mon 02:25:00 PM 34.0089 -84.5157 349° North  Level FlightAware Approximate
Mon 02:25:56 PM 33.8661 -84.6042 347° North 317 365 9,800  Level Atlanta Center
Mon 02:26:00 PM 34.0968 -84.5372 347° North  Level FlightAware Approximate
Mon 02:26:56 PM 33.9661 -84.6200 353° North 322 371 11,200  Level Atlanta Center
Mon 02:27:56 PM 34.0683 -84.6331 354° North 347 399 12,600 1,650 Climbing Atlanta Center
Mon 02:28:56 PM 34.1747 -84.6464 354° North 376 433 14,500 1,750 Climbing Atlanta Center
Mon 02:29:56 PM 34.2767 -84.6822 344° North 384 442 16,100 1,650 Climbing Atlanta Center
Mon 02:30:56 PM 34.3767 -84.7408 334° Northwest 390 449 17,800 1,600 Climbing Atlanta Center
Mon 02:31:56 PM 34.4703 -84.8047 331° Northwest 390 449 19,300 1,300 Climbing Atlanta Center
Mon 02:32:56 PM 34.5511 -84.8661 328° Northwest 397 457 20,400 1,200 Climbing Atlanta Center
Mon 02:33:56 PM 34.6489 -84.9328 331° Northwest 397 457 21,700 1,300 Climbing Atlanta Center
Mon 02:34:56 PM 34.7422 -85.0044 328° Northwest 390 449 23,000 1,350 Climbing Atlanta Center
Mon 02:35:56 PM 34.8417 -85.0714 331° Northwest 396 456 24,400 1,200 Climbing Atlanta Center
Mon 02:36:56 PM 34.9456 -85.1386 332° Northwest 402 463 25,400 800 Climbing Atlanta Center
Mon 02:37:56 PM 35.0303 -85.2308 318° Northwest 408 470 26,000 -300 Climbing Atlanta Center
Mon 02:38:56 PM 35.1128 -85.3361 314° West 413 475 24,800 -833 Descending Atlanta Center
Mon 02:40:20 PM 35.2267 -85.4894 312° West 441 507 24,000 -542 Descending Memphis Center
Mon 02:41:20 PM 35.3100 -85.5914 315° West 441 507 23,500 -600 Descending Memphis Center
Mon 02:42:20 PM 35.3997 -85.7033 315° West 430 495 22,800 -900 Descending Memphis Center
Mon 02:43:20 PM 35.4786 -85.8036 314° West 419 482 21,700 -2,300 Descending Memphis Center
Mon 02:44:20 PM 35.5569 -85.8961 316° Northwest 405 466 18,200 -3,800 Descending Memphis Center
Mon 02:45:20 PM 35.6225 -85.9822 313° West 388 447 14,100 -3,350 Descending Memphis Center
Mon 02:46:20 PM 35.6883 -86.0731 312° West 373 429 11,500 -1,550 Descending Memphis Center
Mon 02:47:20 PM 35.7456 -86.1622 308° West 344 396 11,000 -300 Descending Memphis Center
Mon 02:48:20 PM 35.8025 -86.2439 311° West 333 383 10,900 -446 Descending Memphis Center
Mon 02:49:21 PM 35.8508 -86.3131 311° West 289 333 10,100 -1,350 Descending Memphis Center
Mon 02:50:20 PM 35.8947 -86.3803 309° West 262 302 8,200 -2,017 Descending Memphis Center
Mon 02:51:20 PM 35.9508 -86.4442 317° Northwest 252 290 6,100 -1,900 Descending Memphis Center
Mon 02:52:20 PM 36.0250 -86.4792 339° North 266 306 4,400 -1,750 Descending Memphis Center
Mon 02:53:20 PM 36.0928 -86.5194 334° Northwest 266 306 2,600 -1,200 Descending Memphis Center
Mon 02:54:20 PM 36.1589 -86.5628 332° Northwest 266 306 2,000 -600 Descending Memphis Center

Login

Don't have an account? Register now (free) for customized features, flight alerts, and more!